Pagrindinis puslapis
METAR-TAF:

METAR-TAF

Oro uostai :

Pottstown Limerick Airport

Pottstown, Pensilvanija, Jungtinės Amerikos Valstijos

platuma: 40-14-18N, ilguma: 075-33-26W, Aukštis: 89 m

Dabartinis oras

Ataskaita buvo paskelbta 25 minutes, ne 06:54 UTC
Vėjas 12 kt iš Vakarų su gūsio iki 25 kt
Temperatūra -3°C
Drėgmė 54%
Slėgis 1013 hPa
Matomumas: 16.1 km
Išsisklaidę debesys ne aukštis 4500 ft
Su prošvaistėmis ne aukštis 6000 ft
Su prošvaistėmis ne aukštis 7000 ft

METAR: KPTW 280654Z AUTO 26012G25KT 10SM SCT045 BKN060 BKN070 M03/M11 A2990 RMK AO2 SLP124 T10281106

Laikas: 02:19 (07:19 UTC)


TAF: trūkstamas

Orai ataskaitas ir orų prognozės (METAR, TAF).

turimą stotys yra geltonos ir raudonos taškus žemėlapyje.

Perkelti pele per norėdami pamatyti stoties vardą.

Tada spustelėkite, norėdami matyti oro stebėjimo ir prognozės.

Norėdami pakeisti žemėlapį: spustelėkite ant žalios mygtukų su juodo kryžiaus žemyn,; žalią mygtuką su brūkšneliu, jei norite nutolinti; arba žalių rodyklių gretimoms žemėlapius.


METAR-TAF: